Terminal Aerodrome Forecast
Issued by NWS

Home | Current Version | Previous Version | Text Only | Print | Product List | Glossary On
Versions: 1 2 3 4 5 6 7 8 9 10 11 12
000
FTUS42 TJSJ 260500 RRA
TAFKPK
TAF
TKPK 260543Z 2606/2706 06015G25KT P6SM VCSH SCT018 SCT035
      TEMPO 2606/2610 SHRA BKN018
     FM261500 06017KT P6SM FEW018
      AMD NOT SKED TIL 261100=

USA.gov is the U.S. government's official web portal to all federal, state and local government web resources and services.